EZY128G LSGG-EDDF
Flight info
| Callsign | EZY128G |
|---|---|
| Flight time | 0h 57m |
| Altitude | 30000 |
| Route | DIPIR V25 ARBOS DCT PENDU DCT GIVOR DCT GTQ/N0351F240 DCT ERADI/N0346F230 DCT IDARO DCT OBIGA/N0351F240 DCT RAMOB IMCOM1B |
| Aircraft | A20N/M-SDE2E3FGHIRWXY/LB1 |
Departure
| Time | 2026-05-03 20:29 |
|---|---|
| Airport | Geneva International Airport (LSGG) |
Arrival
| Time | 2026-05-03 21:26 |
|---|---|
| Airport | Frankfurt Main Airport (EDDF) |
| Time | Latitude | Longitude | Altitude | Speed | Heading |
|---|---|---|---|---|---|
| 2026-05-03 20:15 | 46.23151 | 6.10748 | 1390 ft | 0 kts | 137° |
| 2026-05-03 20:17 | 46.23160 | 6.10735 | 1385 ft | 2 kts | 137° |
| 2026-05-03 20:18 | 46.23171 | 6.10720 | 1385 ft | 2 kts | 137° |
| 2026-05-03 20:18 | 46.23181 | 6.10704 | 1385 ft | 2 kts | 105° |
| 2026-05-03 20:18 | 46.23182 | 6.10683 | 1385 ft | 2 kts | 64° |
| 2026-05-03 20:18 | 46.23176 | 6.10671 | 1387 ft | 0 kts | 43° |
| 2026-05-03 20:20 | 46.23177 | 6.10672 | 1386 ft | 1 kts | 43° |
| 2026-05-03 20:20 | 46.23195 | 6.10696 | 1385 ft | 5 kts | 43° |
| 2026-05-03 20:20 | 46.23230 | 6.10747 | 1390 ft | 9 kts | 45° |
| 2026-05-03 20:21 | 46.23292 | 6.10788 | 1390 ft | 11 kts | 16° |
| 2026-05-03 20:21 | 46.23362 | 6.10854 | 1384 ft | 13 kts | 47° |
| 2026-05-03 20:21 | 46.23434 | 6.10962 | 1387 ft | 16 kts | 46° |
| 2026-05-03 20:21 | 46.23518 | 6.11087 | 1388 ft | 19 kts | 45° |
| 2026-05-03 20:22 | 46.23609 | 6.11148 | 1389 ft | 13 kts | 340° |
| 2026-05-03 20:22 | 46.23675 | 6.11070 | 1386 ft | 13 kts | 351° |
| 2026-05-03 20:22 | 46.23748 | 6.11143 | 1388 ft | 14 kts | 48° |
| 2026-05-03 20:22 | 46.23797 | 6.11218 | 1389 ft | 16 kts | 46° |
| 2026-05-03 20:23 | 46.23883 | 6.11343 | 1390 ft | 19 kts | 44° |
| 2026-05-03 20:23 | 46.23978 | 6.11481 | 1390 ft | 21 kts | 47° |
| 2026-05-03 20:23 | 46.24085 | 6.11636 | 1388 ft | 22 kts | 45° |
| 2026-05-03 20:23 | 46.24186 | 6.11786 | 1388 ft | 22 kts | 46° |
| 2026-05-03 20:24 | 46.24297 | 6.11949 | 1387 ft | 24 kts | 44° |
| 2026-05-03 20:24 | 46.24417 | 6.12120 | 1387 ft | 25 kts | 45° |
| 2026-05-03 20:24 | 46.24543 | 6.12301 | 1388 ft | 26 kts | 48° |
| 2026-05-03 20:24 | 46.24670 | 6.12498 | 1390 ft | 27 kts | 46° |
| 2026-05-03 20:25 | 46.24800 | 6.12665 | 1387 ft | 19 kts | 26° |
| 2026-05-03 20:25 | 46.24912 | 6.12720 | 1387 ft | 11 kts | 17° |
| 2026-05-03 20:25 | 46.24925 | 6.12726 | 1385 ft | 0 kts | 17° |
| 2026-05-03 20:26 | 46.24932 | 6.12729 | 1387 ft | 4 kts | 17° |
| 2026-05-03 20:27 | 46.24978 | 6.12730 | 1389 ft | 9 kts | 356° |
| 2026-05-03 20:27 | 46.24999 | 6.12680 | 1385 ft | 6 kts | 259° |
| 2026-05-03 20:27 | 46.24975 | 6.12617 | 1387 ft | 0 kts | 228° |
| 2026-05-03 20:28 | 46.24932 | 6.12551 | 1389 ft | 41 kts | 226° |
| 2026-05-03 20:28 | 46.24503 | 6.11910 | 1398 ft | 132 kts | 225° |
| 2026-05-03 20:28 | 46.23730 | 6.10759 | 1702 ft | 174 kts | 227° |
| 2026-05-03 20:29 | 46.22858 | 6.09425 | 2500 ft | 193 kts | 226° |
| 2026-05-03 20:29 | 46.21899 | 6.07964 | 3442 ft | 205 kts | 225° |
| 2026-05-03 20:29 | 46.20835 | 6.06451 | 4115 ft | 225 kts | 223° |
| 2026-05-03 20:29 | 46.19648 | 6.04815 | 4757 ft | 246 kts | 223° |
| 2026-05-03 20:30 | 46.18410 | 6.03051 | 5038 ft | 252 kts | 223° |
| 2026-05-03 20:30 | 46.17177 | 6.01216 | 5749 ft | 256 kts | 228° |
| 2026-05-03 20:30 | 46.16381 | 5.98939 | 6900 ft | 263 kts | 253° |
| 2026-05-03 20:30 | 46.16379 | 5.96254 | 7944 ft | 277 kts | 279° |
| 2026-05-03 20:31 | 46.17241 | 5.93711 | 9002 ft | 290 kts | 306° |
| 2026-05-03 20:31 | 46.18842 | 5.91862 | 10067 ft | 302 kts | 332° |
| 2026-05-03 20:31 | 46.20916 | 5.91050 | 10780 ft | 322 kts | 355° |
| 2026-05-03 20:31 | 46.23223 | 5.91437 | 11213 ft | 348 kts | 16° |
| 2026-05-03 20:32 | 46.25550 | 5.92549 | 11847 ft | 361 kts | 18° |
| 2026-05-03 20:32 | 46.27965 | 5.93560 | 12832 ft | 363 kts | 13° |
| 2026-05-03 20:32 | 46.30460 | 5.94274 | 13803 ft | 366 kts | 8° |
| 2026-05-03 20:32 | 46.32940 | 5.94739 | 14620 ft | 370 kts | 5° |
| 2026-05-03 20:33 | 46.35574 | 5.95099 | 15469 ft | 373 kts | 4° |
| 2026-05-03 20:33 | 46.38180 | 5.95407 | 16257 ft | 378 kts | 4° |
| 2026-05-03 20:33 | 46.40782 | 5.95706 | 17068 ft | 382 kts | 4° |
| 2026-05-03 20:33 | 46.43250 | 5.95995 | 17794 ft | 386 kts | 4° |
| 2026-05-03 20:34 | 46.45939 | 5.96314 | 18554 ft | 390 kts | 4° |
| 2026-05-03 20:34 | 46.48666 | 5.96640 | 19199 ft | 395 kts | 4° |
| 2026-05-03 20:34 | 46.51431 | 5.96971 | 19826 ft | 401 kts | 3° |
| 2026-05-03 20:34 | 46.54230 | 5.97309 | 20432 ft | 407 kts | 3° |
| 2026-05-03 20:35 | 46.57079 | 5.97652 | 21062 ft | 412 kts | 3° |
| 2026-05-03 20:35 | 46.59925 | 5.97995 | 21668 ft | 417 kts | 3° |
| 2026-05-03 20:35 | 46.62840 | 5.98346 | 22266 ft | 423 kts | 2° |
| 2026-05-03 20:35 | 46.65793 | 5.98701 | 22895 ft | 428 kts | 2° |
| 2026-05-03 20:36 | 46.68731 | 5.99055 | 23478 ft | 434 kts | 2° |
| 2026-05-03 20:36 | 46.71807 | 5.99426 | 24022 ft | 438 kts | 2° |
| 2026-05-03 20:36 | 46.74825 | 5.99791 | 24611 ft | 440 kts | 2° |
| 2026-05-03 20:36 | 46.77879 | 6.00161 | 25157 ft | 443 kts | 2° |
| 2026-05-03 20:37 | 46.80964 | 6.00535 | 25703 ft | 446 kts | 2° |
| 2026-05-03 20:37 | 46.84079 | 6.00913 | 26235 ft | 449 kts | 2° |
| 2026-05-03 20:37 | 46.87203 | 6.01292 | 26751 ft | 451 kts | 2° |
| 2026-05-03 20:37 | 46.90237 | 6.01661 | 27241 ft | 454 kts | 1° |
| 2026-05-03 20:38 | 46.93196 | 6.02021 | 27695 ft | 457 kts | 1° |
| 2026-05-03 20:38 | 46.96379 | 6.02409 | 28173 ft | 460 kts | 1° |
| 2026-05-03 20:38 | 46.99595 | 6.02690 | 28633 ft | 460 kts | 357° |
| 2026-05-03 20:38 | 47.02815 | 6.02728 | 29073 ft | 463 kts | 357° |
| 2026-05-03 20:39 | 47.06048 | 6.02778 | 29469 ft | 466 kts | 357° |
| 2026-05-03 20:39 | 47.09305 | 6.02835 | 29888 ft | 468 kts | 357° |
| 2026-05-03 20:39 | 47.12510 | 6.02892 | 30014 ft | 470 kts | 357° |
| 2026-05-03 20:40 | 47.19074 | 6.03005 | 30015 ft | 470 kts | 357° |
| 2026-05-03 20:40 | 47.25614 | 6.03116 | 30013 ft | 470 kts | 357° |
| 2026-05-03 20:41 | 47.32161 | 6.03227 | 30009 ft | 470 kts | 357° |
| 2026-05-03 20:41 | 47.38668 | 6.04291 | 30012 ft | 474 kts | 8° |
| 2026-05-03 20:42 | 47.45174 | 6.06039 | 30015 ft | 474 kts | 7° |
| 2026-05-03 20:42 | 47.51666 | 6.07765 | 30014 ft | 474 kts | 7° |
| 2026-05-03 20:43 | 47.57974 | 6.09456 | 30010 ft | 474 kts | 7° |
| 2026-05-03 20:43 | 47.64600 | 6.11242 | 30011 ft | 474 kts | 7° |
| 2026-05-03 20:44 | 47.71052 | 6.12986 | 30015 ft | 474 kts | 7° |
| 2026-05-03 20:44 | 47.77552 | 6.14737 | 30011 ft | 474 kts | 7° |
| 2026-05-03 20:45 | 47.84023 | 6.16475 | 30009 ft | 474 kts | 8° |
| 2026-05-03 20:45 | 47.90521 | 6.18238 | 30009 ft | 474 kts | 7° |
| 2026-05-03 20:46 | 47.97025 | 6.20016 | 30006 ft | 475 kts | 7° |
| 2026-05-03 20:46 | 48.03534 | 6.21814 | 30010 ft | 474 kts | 8° |
| 2026-05-03 20:47 | 48.09985 | 6.23602 | 30010 ft | 474 kts | 8° |
| 2026-05-03 20:47 | 48.16478 | 6.25399 | 30015 ft | 474 kts | 8° |
| 2026-05-03 20:48 | 48.22967 | 6.27192 | 30016 ft | 474 kts | 7° |
| 2026-05-03 20:48 | 48.29456 | 6.28991 | 30018 ft | 473 kts | 8° |
| 2026-05-03 20:49 | 48.35941 | 6.30793 | 30016 ft | 473 kts | 7° |
| 2026-05-03 20:49 | 48.42370 | 6.32582 | 30012 ft | 472 kts | 7° |
| 2026-05-03 20:50 | 48.48830 | 6.34384 | 30014 ft | 472 kts | 7° |
| 2026-05-03 20:50 | 48.55286 | 6.36185 | 30016 ft | 472 kts | 7° |
| 2026-05-03 20:51 | 48.61747 | 6.38005 | 30021 ft | 472 kts | 9° |
| 2026-05-03 20:51 | 48.67863 | 6.41341 | 29976 ft | 476 kts | 26° |
| 2026-05-03 20:51 | 48.70702 | 6.43922 | 29584 ft | 474 kts | 31° |
| 2026-05-03 20:52 | 48.73454 | 6.46647 | 28946 ft | 472 kts | 31° |
| 2026-05-03 20:52 | 48.76196 | 6.49346 | 28265 ft | 469 kts | 31° |
| 2026-05-03 20:52 | 48.78931 | 6.52032 | 27561 ft | 466 kts | 31° |
| 2026-05-03 20:52 | 48.81497 | 6.54559 | 26913 ft | 463 kts | 31° |
| 2026-05-03 20:53 | 48.84314 | 6.57348 | 26197 ft | 460 kts | 32° |
| 2026-05-03 20:53 | 48.86991 | 6.60007 | 25544 ft | 458 kts | 32° |
| 2026-05-03 20:53 | 48.89655 | 6.62657 | 24900 ft | 456 kts | 32° |
| 2026-05-03 20:53 | 48.92274 | 6.65265 | 24266 ft | 454 kts | 32° |
| 2026-05-03 20:54 | 48.94920 | 6.67901 | 23637 ft | 452 kts | 32° |
| 2026-05-03 20:54 | 49.00480 | 6.72054 | 22433 ft | 438 kts | 15° |
| 2026-05-03 20:54 | 49.03419 | 6.73188 | 21860 ft | 431 kts | 9° |
| 2026-05-03 20:55 | 49.06304 | 6.74132 | 21318 ft | 426 kts | 9° |
| 2026-05-03 20:55 | 49.09172 | 6.75091 | 21076 ft | 420 kts | 9° |
| 2026-05-03 20:55 | 49.12042 | 6.76051 | 21022 ft | 425 kts | 9° |
| 2026-05-03 20:55 | 49.14898 | 6.77005 | 21015 ft | 425 kts | 9° |
| 2026-05-03 20:56 | 49.17825 | 6.77981 | 21017 ft | 424 kts | 9° |
| 2026-05-03 20:56 | 49.20716 | 6.78934 | 21013 ft | 424 kts | 9° |
| 2026-05-03 20:56 | 49.23568 | 6.79860 | 21016 ft | 424 kts | 8° |
| 2026-05-03 20:56 | 49.26458 | 6.80799 | 21019 ft | 424 kts | 9° |
| 2026-05-03 20:57 | 49.29337 | 6.81753 | 21016 ft | 424 kts | 9° |
| 2026-05-03 20:57 | 49.32225 | 6.82712 | 21013 ft | 424 kts | 9° |
| 2026-05-03 20:57 | 49.34953 | 6.83603 | 21018 ft | 424 kts | 8° |
| 2026-05-03 20:57 | 49.37835 | 6.84542 | 21009 ft | 424 kts | 9° |
| 2026-05-03 20:58 | 49.40724 | 6.85506 | 21014 ft | 424 kts | 9° |
| 2026-05-03 20:58 | 49.43607 | 6.86477 | 21012 ft | 423 kts | 9° |
| 2026-05-03 20:58 | 49.46490 | 6.87444 | 21008 ft | 424 kts | 9° |
| 2026-05-03 20:58 | 49.49373 | 6.88399 | 20880 ft | 421 kts | 9° |
| 2026-05-03 20:59 | 49.52199 | 6.89314 | 20519 ft | 418 kts | 9° |
| 2026-05-03 20:59 | 49.54994 | 6.90456 | 20022 ft | 417 kts | 20° |
| 2026-05-03 20:59 | 49.57538 | 6.92574 | 19471 ft | 415 kts | 36° |
| 2026-05-03 20:59 | 49.59557 | 6.95706 | 18944 ft | 412 kts | 54° |
| 2026-05-03 21:00 | 49.60876 | 6.99577 | 18386 ft | 406 kts | 71° |
| 2026-05-03 21:00 | 49.61191 | 7.00968 | 18194 ft | 405 kts | 73° |
| 2026-05-03 21:00 | 49.62660 | 7.07759 | 17238 ft | 398 kts | 73° |
| 2026-05-03 21:00 | 49.63531 | 7.11795 | 16677 ft | 394 kts | 73° |
| 2026-05-03 21:01 | 49.64382 | 7.15735 | 16120 ft | 390 kts | 73° |
| 2026-05-03 21:01 | 49.64963 | 7.18416 | 15759 ft | 388 kts | 73° |
| 2026-05-03 21:02 | 49.67791 | 7.31517 | 13983 ft | 376 kts | 73° |
| 2026-05-03 21:02 | 49.68613 | 7.35356 | 13414 ft | 373 kts | 73° |
| 2026-05-03 21:02 | 49.69427 | 7.39132 | 12880 ft | 369 kts | 73° |
| 2026-05-03 21:02 | 49.70241 | 7.42895 | 12300 ft | 367 kts | 73° |
| 2026-05-03 21:03 | 49.70776 | 7.45361 | 12052 ft | 362 kts | 73° |
| 2026-05-03 21:03 | 49.71567 | 7.48992 | 11744 ft | 352 kts | 73° |
| 2026-05-03 21:03 | 49.72345 | 7.52558 | 11292 ft | 349 kts | 73° |
| 2026-05-03 21:03 | 49.73370 | 7.57227 | 11020 ft | 347 kts | 73° |
| 2026-05-03 21:04 | 49.73896 | 7.59628 | 10978 ft | 348 kts | 73° |
| 2026-05-03 21:04 | 49.74672 | 7.63175 | 10989 ft | 348 kts | 73° |
| 2026-05-03 21:04 | 49.75439 | 7.66678 | 10970 ft | 348 kts | 73° |
| 2026-05-03 21:04 | 49.76219 | 7.70244 | 10983 ft | 349 kts | 73° |
| 2026-05-03 21:05 | 49.76997 | 7.73801 | 10975 ft | 349 kts | 73° |
| 2026-05-03 21:05 | 49.77652 | 7.77410 | 10979 ft | 348 kts | 81° |
| 2026-05-03 21:05 | 49.78184 | 7.82291 | 10980 ft | 347 kts | 83° |
| 2026-05-03 21:05 | 49.78441 | 7.84788 | 10965 ft | 347 kts | 83° |
| 2026-05-03 21:06 | 49.78818 | 7.88426 | 10968 ft | 347 kts | 83° |
| 2026-05-03 21:06 | 49.79195 | 7.92110 | 10972 ft | 347 kts | 83° |
| 2026-05-03 21:06 | 49.79575 | 7.95811 | 10972 ft | 347 kts | 83° |
| 2026-05-03 21:06 | 49.79954 | 7.99520 | 10977 ft | 348 kts | 83° |
| 2026-05-03 21:07 | 49.80334 | 8.03218 | 10964 ft | 348 kts | 83° |
| 2026-05-03 21:07 | 49.80714 | 8.06917 | 10950 ft | 348 kts | 83° |
| 2026-05-03 21:07 | 49.81091 | 8.10588 | 10900 ft | 342 kts | 83° |
| 2026-05-03 21:07 | 49.81462 | 8.14122 | 10799 ft | 331 kts | 83° |
| 2026-05-03 21:08 | 49.81822 | 8.17508 | 10678 ft | 319 kts | 83° |
| 2026-05-03 21:08 | 49.82186 | 8.20848 | 10424 ft | 312 kts | 83° |
| 2026-05-03 21:08 | 49.82557 | 8.24156 | 10030 ft | 311 kts | 83° |
| 2026-05-03 21:08 | 49.82938 | 8.27453 | 9595 ft | 310 kts | 83° |
| 2026-05-03 21:09 | 49.83381 | 8.30723 | 9196 ft | 309 kts | 77° |
| 2026-05-03 21:09 | 49.84054 | 8.33834 | 9012 ft | 309 kts | 73° |
| 2026-05-03 21:09 | 49.84783 | 8.37000 | 8970 ft | 312 kts | 73° |
| 2026-05-03 21:09 | 49.85508 | 8.40162 | 8970 ft | 311 kts | 73° |
| 2026-05-03 21:10 | 49.86236 | 8.43332 | 8931 ft | 311 kts | 73° |
| 2026-05-03 21:10 | 49.86963 | 8.46491 | 8668 ft | 310 kts | 73° |
| 2026-05-03 21:10 | 49.87693 | 8.49645 | 8300 ft | 309 kts | 73° |
| 2026-05-03 21:10 | 49.88409 | 8.52727 | 7911 ft | 308 kts | 73° |
| 2026-05-03 21:11 | 49.89137 | 8.55861 | 7472 ft | 308 kts | 73° |
| 2026-05-03 21:11 | 49.89867 | 8.58975 | 7146 ft | 304 kts | 73° |
| 2026-05-03 21:11 | 49.90582 | 8.61980 | 7009 ft | 291 kts | 73° |
| 2026-05-03 21:11 | 49.91273 | 8.64875 | 6916 ft | 279 kts | 73° |
| 2026-05-03 21:12 | 49.91936 | 8.67651 | 6684 ft | 271 kts | 73° |
| 2026-05-03 21:12 | 49.92587 | 8.70389 | 6327 ft | 269 kts | 73° |
| 2026-05-03 21:12 | 49.93222 | 8.73084 | 5953 ft | 268 kts | 73° |
| 2026-05-03 21:12 | 49.93856 | 8.75832 | 5537 ft | 267 kts | 73° |
| 2026-05-03 21:13 | 49.94464 | 8.78541 | 5184 ft | 264 kts | 73° |
| 2026-05-03 21:13 | 49.95044 | 8.81202 | 4807 ft | 263 kts | 73° |
| 2026-05-03 21:13 | 49.95621 | 8.83914 | 4429 ft | 262 kts | 73° |
| 2026-05-03 21:13 | 49.96171 | 8.86539 | 4269 ft | 251 kts | 73° |
| 2026-05-03 21:14 | 49.96714 | 8.89106 | 4044 ft | 246 kts | 73° |
| 2026-05-03 21:14 | 49.97248 | 8.91655 | 3999 ft | 250 kts | 73° |
| 2026-05-03 21:14 | 49.97778 | 8.94233 | 4004 ft | 250 kts | 73° |
| 2026-05-03 21:14 | 49.98312 | 8.96816 | 3997 ft | 250 kts | 74° |
| 2026-05-03 21:15 | 49.98837 | 8.99318 | 4003 ft | 249 kts | 73° |
| 2026-05-03 21:15 | 49.99375 | 9.01891 | 4002 ft | 251 kts | 73° |
| 2026-05-03 21:15 | 49.99919 | 9.04485 | 4006 ft | 252 kts | 73° |
| 2026-05-03 21:15 | 50.00464 | 9.07075 | 4008 ft | 252 kts | 73° |
| 2026-05-03 21:16 | 50.01334 | 9.09411 | 3998 ft | 250 kts | 42° |
| 2026-05-03 21:16 | 50.02795 | 9.10787 | 4008 ft | 245 kts | 15° |
| 2026-05-03 21:16 | 50.04379 | 9.11631 | 3992 ft | 235 kts | 13° |
| 2026-05-03 21:16 | 50.05917 | 9.12456 | 3992 ft | 237 kts | 14° |
| 2026-05-03 21:17 | 50.07485 | 9.13254 | 3993 ft | 236 kts | 13° |
| 2026-05-03 21:17 | 50.08524 | 9.13784 | 3992 ft | 236 kts | 13° |
| 2026-05-03 21:17 | 50.10593 | 9.14848 | 4001 ft | 234 kts | 13° |
| 2026-05-03 21:17 | 50.12164 | 9.15395 | 3994 ft | 227 kts | 351° |
| 2026-05-03 21:18 | 50.13604 | 9.14702 | 4003 ft | 212 kts | 316° |
| 2026-05-03 21:18 | 50.14471 | 9.12998 | 3998 ft | 197 kts | 286° |
| 2026-05-03 21:18 | 50.14799 | 9.10999 | 4004 ft | 190 kts | 266° |
| 2026-05-03 21:18 | 50.14739 | 9.08937 | 3994 ft | 190 kts | 262° |
| 2026-05-03 21:19 | 50.14615 | 9.06873 | 3999 ft | 190 kts | 261° |
| 2026-05-03 21:19 | 50.14496 | 9.04819 | 4004 ft | 190 kts | 262° |
| 2026-05-03 21:19 | 50.14350 | 9.02848 | 4001 ft | 182 kts | 258° |
| 2026-05-03 21:19 | 50.14043 | 9.00906 | 3998 ft | 184 kts | 251° |
| 2026-05-03 21:20 | 50.13639 | 8.99038 | 4000 ft | 183 kts | 249° |
| 2026-05-03 21:20 | 50.13211 | 8.97213 | 4003 ft | 177 kts | 248° |
| 2026-05-03 21:20 | 50.12776 | 8.95391 | 3997 ft | 179 kts | 248° |
| 2026-05-03 21:20 | 50.12343 | 8.93573 | 4000 ft | 179 kts | 248° |
| 2026-05-03 21:21 | 50.11909 | 8.91754 | 4002 ft | 179 kts | 248° |
| 2026-05-03 21:21 | 50.11496 | 8.90014 | 3994 ft | 168 kts | 249° |
| 2026-05-03 21:21 | 50.11088 | 8.88304 | 4002 ft | 168 kts | 249° |
| 2026-05-03 21:21 | 50.10683 | 8.86605 | 3996 ft | 168 kts | 249° |
| 2026-05-03 21:22 | 50.10272 | 8.84886 | 3866 ft | 169 kts | 249° |
| 2026-05-03 21:22 | 50.09869 | 8.83195 | 3645 ft | 168 kts | 249° |
| 2026-05-03 21:22 | 50.09462 | 8.81488 | 3433 ft | 168 kts | 249° |
| 2026-05-03 21:22 | 50.09055 | 8.79784 | 3215 ft | 168 kts | 249° |
| 2026-05-03 21:23 | 50.08651 | 8.78090 | 2990 ft | 168 kts | 250° |
| 2026-05-03 21:23 | 50.08240 | 8.76367 | 2765 ft | 169 kts | 250° |
| 2026-05-03 21:23 | 50.07828 | 8.74640 | 2534 ft | 169 kts | 250° |
| 2026-05-03 21:23 | 50.07417 | 8.72920 | 2324 ft | 169 kts | 249° |
| 2026-05-03 21:24 | 50.07038 | 8.71333 | 2100 ft | 146 kts | 249° |
| 2026-05-03 21:24 | 50.06695 | 8.69899 | 1908 ft | 143 kts | 249° |
| 2026-05-03 21:24 | 50.06351 | 8.68458 | 1722 ft | 138 kts | 249° |
| 2026-05-03 21:24 | 50.06025 | 8.67093 | 1532 ft | 134 kts | 250° |
| 2026-05-03 21:25 | 50.05697 | 8.65723 | 1356 ft | 136 kts | 249° |
| 2026-05-03 21:25 | 50.05369 | 8.64349 | 1169 ft | 137 kts | 248° |
| 2026-05-03 21:25 | 50.05037 | 8.62960 | 987 ft | 137 kts | 249° |
| 2026-05-03 21:25 | 50.04706 | 8.61576 | 805 ft | 135 kts | 249° |
| 2026-05-03 21:26 | 50.04389 | 8.60250 | 619 ft | 126 kts | 247° |
| 2026-05-03 21:26 | 50.04087 | 8.59008 | 465 ft | 124 kts | 247° |
| 2026-05-03 21:26 | 50.03786 | 8.57739 | 370 ft | 119 kts | 247° |
| 2026-05-03 21:26 | 50.03600 | 8.56965 | 359 ft | 38 kts | 251° |
| 2026-05-03 21:27 | 50.03527 | 8.56647 | 360 ft | 28 kts | 249° |
| 2026-05-03 21:27 | 50.03448 | 8.56325 | 365 ft | 33 kts | 252° |
| 2026-05-03 21:27 | 50.03440 | 8.56053 | 359 ft | 12 kts | 278° |
| 2026-05-03 21:27 | 50.03454 | 8.55906 | 354 ft | 14 kts | 278° |
| 2026-05-03 21:28 | 50.03466 | 8.55779 | 359 ft | 8 kts | 279° |
| 2026-05-03 21:28 | 50.03477 | 8.55673 | 360 ft | 9 kts | 279° |
| 2026-05-03 21:28 | 50.03482 | 8.55633 | 353 ft | 2 kts | 278° |
| 2026-05-03 21:28 | 50.03488 | 8.55567 | 349 ft | 9 kts | 279° |
| 2026-05-03 21:29 | 50.03511 | 8.55515 | 350 ft | 0 kts | 336° |
| 2026-05-03 21:29 | 50.03512 | 8.55510 | 350 ft | 1 kts | 305° |
| 2026-05-03 21:29 | 50.03504 | 8.55490 | 352 ft | 7 kts | 237° |
| 2026-05-03 21:30 | 50.03467 | 8.55377 | 350 ft | 15 kts | 248° |
| 2026-05-03 21:30 | 50.03432 | 8.55224 | 354 ft | 11 kts | 250° |
| 2026-05-03 21:30 | 50.03401 | 8.55090 | 351 ft | 15 kts | 250° |
| 2026-05-03 21:30 | 50.03407 | 8.54924 | 353 ft | 18 kts | 290° |
| 2026-05-03 21:31 | 50.03469 | 8.54836 | 348 ft | 10 kts | 336° |
| 2026-05-03 21:31 | 50.03542 | 8.54791 | 347 ft | 13 kts | 340° |
| 2026-05-03 21:31 | 50.03638 | 8.54737 | 356 ft | 9 kts | 340° |
| 2026-05-03 21:31 | 50.03701 | 8.54709 | 347 ft | 10 kts | 4° |
| 2026-05-03 21:32 | 50.03767 | 8.54767 | 348 ft | 13 kts | 58° |
| 2026-05-03 21:32 | 50.03801 | 8.54912 | 349 ft | 15 kts | 73° |
| 2026-05-03 21:32 | 50.03829 | 8.55045 | 357 ft | 12 kts | 70° |
| 2026-05-03 21:32 | 50.03856 | 8.55157 | 357 ft | 12 kts | 69° |
| 2026-05-03 21:33 | 50.03891 | 8.55301 | 356 ft | 16 kts | 68° |
| 2026-05-03 21:33 | 50.03937 | 8.55476 | 357 ft | 19 kts | 69° |
| 2026-05-03 21:33 | 50.03987 | 8.55694 | 353 ft | 24 kts | 70° |
| 2026-05-03 21:33 | 50.04042 | 8.55924 | 355 ft | 20 kts | 69° |
| 2026-05-03 21:34 | 50.04083 | 8.56096 | 359 ft | 13 kts | 70° |
| 2026-05-03 21:34 | 50.04113 | 8.56222 | 358 ft | 14 kts | 69° |
| 2026-05-03 21:34 | 50.04153 | 8.56385 | 358 ft | 18 kts | 69° |
| 2026-05-03 21:34 | 50.04197 | 8.56567 | 363 ft | 16 kts | 70° |
| 2026-05-03 21:35 | 50.04229 | 8.56706 | 365 ft | 14 kts | 70° |
| 2026-05-03 21:35 | 50.04265 | 8.56858 | 366 ft | 15 kts | 69° |
| 2026-05-03 21:35 | 50.04305 | 8.57023 | 367 ft | 19 kts | 70° |
| 2026-05-03 21:35 | 50.04357 | 8.57232 | 371 ft | 22 kts | 68° |
| 2026-05-03 21:36 | 50.04404 | 8.57428 | 367 ft | 19 kts | 70° |
| 2026-05-03 21:36 | 50.04448 | 8.57628 | 369 ft | 20 kts | 70° |
| 2026-05-03 21:36 | 50.04490 | 8.57803 | 371 ft | 16 kts | 71° |
| 2026-05-03 21:36 | 50.04528 | 8.57958 | 370 ft | 12 kts | 67° |
| 2026-05-03 21:37 | 50.04562 | 8.58097 | 371 ft | 16 kts | 75° |
| 2026-05-03 21:37 | 50.04601 | 8.58273 | 372 ft | 18 kts | 68° |
| 2026-05-03 21:37 | 50.04648 | 8.58468 | 371 ft | 19 kts | 68° |
| 2026-05-03 21:37 | 50.04694 | 8.58642 | 370 ft | 9 kts | 67° |
| 2026-05-03 21:38 | 50.04722 | 8.58748 | 369 ft | 13 kts | 67° |
| 2026-05-03 21:38 | 50.04764 | 8.58905 | 371 ft | 18 kts | 72° |
| 2026-05-03 21:38 | 50.04802 | 8.59091 | 372 ft | 15 kts | 72° |
| 2026-05-03 21:38 | 50.04831 | 8.59217 | 373 ft | 9 kts | 69° |
| 2026-05-03 21:39 | 50.04864 | 8.59290 | 373 ft | 9 kts | 6° |
| 2026-05-03 21:39 | 50.04920 | 8.59263 | 374 ft | 8 kts | 338° |
| 2026-05-03 21:39 | 50.04934 | 8.59255 | 374 ft | 0 kts | 339° |